sensor_id;sensor_type;location;lat;lon;timestamp;pressure;altitude;pressure_sealevel;temperature;humidity
8697;BME280;4385;48.848;8.924;2023-05-02T00:00:25;97481.06;;;18.62;100.00
8697;BME280;4385;48.848;8.924;2023-05-02T00:02:50;97481.06;;;18.62;100.00
8697;BME280;4385;48.848;8.924;2023-05-02T00:05:16;97481.91;;;18.62;100.00
8697;BME280;4385;48.848;8.924;2023-05-02T00:07:41;97480.25;;;18.61;100.00
8697;BME280;4385;48.848;8.924;2023-05-02T00:10:07;97484.50;;;18.61;100.00
8697;BME280;4385;48.848;8.924;2023-05-02T00:12:32;97475.19;;;18.60;100.00
8697;BME280;4385;48.848;8.924;2023-05-02T00:14:58;97478.59;;;18.59;100.00
8697;BME280;4385;48.848;8.924;2023-05-02T00:17:23;97471.81;;;18.57;100.00
8697;BME280;4385;48.848;8.924;2023-05-02T00:19:49;97476.09;;;18.55;100.00
8697;BME280;4385;48.848;8.924;2023-05-02T00:22:14;97473.56;;;18.55;100.00
8697;BME280;4385;48.848;8.924;2023-05-02T00:24:40;97472.78;;;18.53;100.00
8697;BME280;4385;48.848;8.924;2023-05-02T00:27:05;97477.03;;;18.53;100.00
8697;BME280;4385;48.848;8.924;2023-05-02T00:29:31;97481.28;;;18.52;100.00
8697;BME280;4385;48.848;8.924;2023-05-02T00:31:56;97479.63;;;18.51;100.00
8697;BME280;4385;48.848;8.924;2023-05-02T00:34:30;97485.59;;;18.50;100.00
8697;BME280;4385;48.848;8.924;2023-05-02T00:36:56;97480.50;;;18.50;100.00
8697;BME280;4385;48.848;8.924;2023-05-02T00:39:21;97482.25;;;18.48;100.00
8697;BME280;4385;48.848;8.924;2023-05-02T00:41:46;97484.78;;;18.48;100.00
8697;BME280;4385;48.848;8.924;2023-05-02T00:44:12;97483.97;;;18.46;100.00
8697;BME280;4385;48.848;8.924;2023-05-02T00:46:37;97483.16;;;18.46;100.00
8697;BME280;4385;48.848;8.924;2023-05-02T00:49:02;97492.50;;;18.45;100.00
8697;BME280;4385;48.848;8.924;2023-05-02T00:51:28;97487.41;;;18.45;100.00
8697;BME280;4385;48.848;8.924;2023-05-02T00:53:53;97484.00;;;18.44;100.00
8697;BME280;4385;48.848;8.924;2023-05-02T00:56:20;97492.50;;;18.45;100.00
8697;BME280;4385;48.848;8.924;2023-05-02T00:58:46;97484.03;;;18.43;100.00
8697;BME280;4385;48.848;8.924;2023-05-02T01:01:25;97488.34;;;18.41;100.00
8697;BME280;4385;48.848;8.924;2023-05-02T01:14:33;97496.94;;;18.37;100.00
8697;BME280;4385;48.848;8.924;2023-05-02T01:17:02;97488.50;;;18.35;100.00
8697;BME280;4385;48.848;8.924;2023-05-02T01:19:34;97490.19;;;18.34;100.00
8697;BME280;4385;48.848;8.924;2023-05-02T01:22:07;97485.09;;;18.34;100.00
8697;BME280;4385;48.848;8.924;2023-05-02T01:30:13;97488.53;;;18.33;100.00
8697;BME280;4385;48.848;8.924;2023-05-02T01:32:42;97489.38;;;18.32;100.00
8697;BME280;4385;48.848;8.924;2023-05-02T01:35:10;97489.38;;;18.32;100.00
8697;BME280;4385;48.848;8.924;2023-05-02T01:37:38;97486.88;;;18.30;100.00
8697;BME280;4385;48.848;8.924;2023-05-02T01:40:04;97492.84;;;18.29;100.00
8697;BME280;4385;48.848;8.924;2023-05-02T01:42:32;97492.88;;;18.28;100.00
8697;BME280;4385;48.848;8.924;2023-05-02T01:44:58;97489.47;;;18.27;100.00
8697;BME280;4385;48.848;8.924;2023-05-02T01:47:25;97496.28;;;18.28;100.00
8697;BME280;4385;48.848;8.924;2023-05-02T01:49:51;97497.97;;;18.28;100.00
8697;BME280;4385;48.848;8.924;2023-05-02T01:52:18;97500.56;;;18.26;100.00
8697;BME280;4385;48.848;8.924;2023-05-02T01:54:46;97503.13;;;18.26;100.00
8697;BME280;4385;48.848;8.924;2023-05-02T01:57:13;97505.63;;;18.28;100.00
8697;BME280;4385;48.848;8.924;2023-05-02T01:59:39;97500.56;;;18.26;100.00
8697;BME280;4385;48.848;8.924;2023-05-02T02:02:06;97492.91;;;18.26;100.00
8697;BME280;4385;48.848;8.924;2023-05-02T02:04:33;97502.25;;;18.26;100.00
8697;BME280;4385;48.848;8.924;2023-05-02T02:07:05;97500.63;;;18.23;100.00
8697;BME280;4385;48.848;8.924;2023-05-02T02:09:30;97494.72;;;18.21;100.00
8697;BME280;4385;48.848;8.924;2023-05-02T02:12:01;97501.50;;;18.22;100.00
8697;BME280;4385;48.848;8.924;2023-05-02T02:14:33;97501.50;;;18.22;100.00
8697;BME280;4385;48.848;8.924;2023-05-02T02:17:01;97502.31;;;18.23;100.00
8697;BME280;4385;48.848;8.924;2023-05-02T02:19:28;97507.47;;;18.21;100.00
8697;BME280;4385;48.848;8.924;2023-05-02T02:21:57;97510.00;;;18.21;100.00
8697;BME280;4385;48.848;8.924;2023-05-02T02:24:23;97515.19;;;18.18;100.00
8697;BME280;4385;48.848;8.924;2023-05-02T02:26:50;97517.72;;;18.18;100.00
8697;BME280;4385;48.848;8.924;2023-05-02T02:29:15;97525.38;;;18.18;100.00
8697;BME280;4385;48.848;8.924;2023-05-02T02:31:41;97526.22;;;18.18;100.00
8697;BME280;4385;48.848;8.924;2023-05-02T02:34:06;97523.72;;;18.17;100.00
8697;BME280;4385;48.848;8.924;2023-05-02T02:36:54;97527.13;;;18.16;100.00
8697;BME280;4385;48.848;8.924;2023-05-02T02:44:38;97540.78;;;18.13;100.00
8697;BME280;4385;48.848;8.924;2023-05-02T02:47:13;97543.31;;;18.13;100.00
8697;BME280;4385;48.848;8.924;2023-05-02T02:50:10;97547.59;;;18.13;100.00
8697;BME280;4385;48.848;8.924;2023-05-02T02:52:54;97551.00;;;18.12;100.00
8697;BME280;4385;48.848;8.924;2023-05-02T02:58:25;97547.63;;;18.10;100.00
8697;BME280;4385;48.848;8.924;2023-05-02T03:00:54;97554.41;;;18.11;100.00
8697;BME280;4385;48.848;8.924;2023-05-02T03:03:23;97558.66;;;18.10;100.00
8697;BME280;4385;48.848;8.924;2023-05-02T03:05:54;97560.38;;;18.10;100.00
8697;BME280;4385;48.848;8.924;2023-05-02T03:08:19;97568.03;;;18.10;100.00
8697;BME280;4385;48.848;8.924;2023-05-02T03:10:45;97571.44;;;18.08;100.00
8697;BME280;4385;48.848;8.924;2023-05-02T03:13:10;97567.19;;;18.09;100.00
8697;BME280;4385;48.848;8.924;2023-05-02T03:18:16;97578.28;;;18.06;100.00
8697;BME280;4385;48.848;8.924;2023-05-02T03:20:42;97585.94;;;18.06;100.00
8697;BME280;4385;48.848;8.924;2023-05-02T03:23:07;97591.88;;;18.05;100.00
8697;BME280;4385;48.848;8.924;2023-05-02T03:25:32;97589.34;;;18.05;100.00
8697;BME280;4385;48.848;8.924;2023-05-02T03:27:58;97592.75;;;18.06;100.00
8697;BME280;4385;48.848;8.924;2023-05-02T03:30:23;97591.88;;;18.05;100.00
8697;BME280;4385;48.848;8.924;2023-05-02T03:32:49;97596.16;;;18.05;100.00
8697;BME280;4385;48.848;8.924;2023-05-02T03:35:14;97592.75;;;18.06;100.00
8697;BME280;4385;48.848;8.924;2023-05-02T03:37:40;97599.56;;;18.04;100.00
8697;BME280;4385;48.848;8.924;2023-05-02T03:40:06;97605.53;;;18.04;100.00
8697;BME280;4385;48.848;8.924;2023-05-02T03:42:33;97609.78;;;18.04;100.00
8697;BME280;4385;48.848;8.924;2023-05-02T03:45:05;97619.94;;;18.05;100.00
8697;BME280;4385;48.848;8.924;2023-05-02T03:47:30;97616.56;;;18.05;100.00
8697;BME280;4385;48.848;8.924;2023-05-02T03:49:55;97619.16;;;18.03;100.00
8697;BME280;4385;48.848;8.924;2023-05-02T03:52:21;97617.38;;;18.05;100.00
8697;BME280;4385;48.848;8.924;2023-05-02T03:54:47;97624.25;;;18.03;100.00
8697;BME280;4385;48.848;8.924;2023-05-02T03:57:12;97624.25;;;18.03;100.00
8697;BME280;4385;48.848;8.924;2023-05-02T03:59:38;97624.25;;;18.03;100.00
8697;BME280;4385;48.848;8.924;2023-05-02T04:02:05;97633.59;;;18.03;100.00
8697;BME280;4385;48.848;8.924;2023-05-02T04:04:31;97622.53;;;18.02;100.00
8697;BME280;4385;48.848;8.924;2023-05-02T04:06:56;97624.28;;;18.02;100.00
8697;BME280;4385;48.848;8.924;2023-05-02T04:09:22;97624.28;;;18.02;100.00
8697;BME280;4385;48.848;8.924;2023-05-02T04:11:49;97626.81;;;18.02;100.00
8697;BME280;4385;48.848;8.924;2023-05-02T04:14:14;97630.19;;;18.02;100.00
8697;BME280;4385;48.848;8.924;2023-05-02T04:16:40;97635.28;;;18.02;100.00
8697;BME280;4385;48.848;8.924;2023-05-02T04:19:05;97625.09;;;18.02;100.00
8697;BME280;4385;48.848;8.924;2023-05-02T04:21:30;97633.59;;;18.03;100.00
8697;BME280;4385;48.848;8.924;2023-05-02T04:23:55;97640.41;;;18.01;100.00
8697;BME280;4385;48.848;8.924;2023-05-02T04:26:21;97640.41;;;18.01;100.00
8697;BME280;4385;48.848;8.924;2023-05-02T04:28:46;97644.69;;;18.00;100.00
8697;BME280;4385;48.848;8.924;2023-05-02T04:31:13;97635.31;;;18.01;100.00
8697;BME280;4385;48.848;8.924;2023-05-02T04:33:38;97638.72;;;18.01;100.00
8697;BME280;4385;48.848;8.924;2023-05-02T04:36:04;97641.28;;;18.01;100.00
8697;BME280;4385;48.848;8.924;2023-05-02T04:38:29;97641.28;;;18.01;100.00
8697;BME280;4385;48.848;8.924;2023-05-02T04:40:54;97644.69;;;18.00;100.00
8697;BME280;4385;48.848;8.924;2023-05-02T04:43:20;97648.94;;;18.00;100.00
8697;BME280;4385;48.848;8.924;2023-05-02T04:45:45;97652.34;;;18.00;100.00
8697;BME280;4385;48.848;8.924;2023-05-02T04:48:10;97659.16;;;18.00;100.00
8697;BME280;4385;48.848;8.924;2023-05-02T04:50:36;97658.31;;;17.99;100.00
8697;BME280;4385;48.848;8.924;2023-05-02T04:53:02;97658.31;;;17.99;100.00
8697;BME280;4385;48.848;8.924;2023-05-02T04:55:28;97661.72;;;17.98;100.00
8697;BME280;4385;48.848;8.924;2023-05-02T04:57:54;97670.25;;;17.97;100.00
8697;BME280;4385;48.848;8.924;2023-05-02T05:00:19;97676.19;;;17.98;100.00
8697;BME280;4385;48.848;8.924;2023-05-02T05:02:45;97683.03;;;17.95;100.00
8697;BME280;4385;48.848;8.924;2023-05-02T05:05:11;97692.38;;;17.95;100.00
8697;BME280;4385;48.848;8.924;2023-05-02T05:07:36;97702.56;;;17.95;100.00
8697;BME280;4385;48.848;8.924;2023-05-02T05:10:01;97696.63;;;17.94;100.00
8697;BME280;4385;48.848;8.924;2023-05-02T05:12:27;97698.34;;;17.94;100.00
8697;BME280;4385;48.848;8.924;2023-05-02T05:14:52;97708.53;;;17.95;100.00
8697;BME280;4385;48.848;8.924;2023-05-02T05:17:18;97706.00;;;17.94;100.00
8697;BME280;4385;48.848;8.924;2023-05-02T05:19:43;97708.56;;;17.94;100.00
8697;BME280;4385;48.848;8.924;2023-05-02T05:22:08;97707.66;;;17.95;100.00
8697;BME280;4385;48.848;8.924;2023-05-02T05:24:34;97706.81;;;17.94;100.00
8697;BME280;4385;48.848;8.924;2023-05-02T05:26:59;97713.66;;;17.94;100.00
8697;BME280;4385;48.848;8.924;2023-05-02T05:29:24;97722.13;;;17.94;100.00
8697;BME280;4385;48.848;8.924;2023-05-02T05:31:50;97715.31;;;17.95;100.00
8697;BME280;4385;48.848;8.924;2023-05-02T05:34:15;97721.31;;;17.94;100.00
8697;BME280;4385;48.848;8.924;2023-05-02T05:36:41;97728.09;;;17.93;100.00
8697;BME280;4385;48.848;8.924;2023-05-02T05:39:06;97728.97;;;17.92;100.00
8697;BME280;4385;48.848;8.924;2023-05-02T05:41:31;97729.78;;;17.93;100.00
8697;BME280;4385;48.848;8.924;2023-05-02T05:43:58;97730.66;;;17.93;100.00
8697;BME280;4385;48.848;8.924;2023-05-02T05:46:23;97734.88;;;17.93;100.00
8697;BME280;4385;48.848;8.924;2023-05-02T05:48:48;97736.53;;;17.97;100.00
8697;BME280;4385;48.848;8.924;2023-05-02T05:51:14;97739.03;;;18.02;100.00
8697;BME280;4385;48.848;8.924;2023-05-02T05:53:39;97744.91;;;18.05;100.00
8697;BME280;4385;48.848;8.924;2023-05-02T05:56:11;97747.38;;;18.10;100.00
8697;BME280;4385;48.848;8.924;2023-05-02T05:58:37;97754.13;;;18.16;100.00
8697;BME280;4385;48.848;8.924;2023-05-02T06:01:03;97756.63;;;18.19;100.00
8697;BME280;4385;48.848;8.924;2023-05-02T06:03:28;97765.03;;;18.23;100.00
8697;BME280;4385;48.848;8.924;2023-05-02T06:05:54;97762.44;;;18.26;100.00
8697;BME280;4385;48.848;8.924;2023-05-02T06:08:19;97763.25;;;18.29;100.00
8697;BME280;4385;48.848;8.924;2023-05-02T06:10:45;97771.72;;;18.31;100.00
8697;BME280;4385;48.848;8.924;2023-05-02T06:13:11;97766.59;;;18.33;100.00
8697;BME280;4385;48.848;8.924;2023-05-02T06:15:36;97769.13;;;18.35;100.00
8697;BME280;4385;48.848;8.924;2023-05-02T06:18:01;97760.59;;;18.36;100.00
8697;BME280;4385;48.848;8.924;2023-05-02T06:20:27;97771.63;;;18.38;100.00
8697;BME280;4385;48.848;8.924;2023-05-02T06:22:52;97778.38;;;18.39;100.00
8697;BME280;4385;48.848;8.924;2023-05-02T06:25:17;97778.38;;;18.40;100.00
8697;BME280;4385;48.848;8.924;2023-05-02T06:27:43;97788.53;;;18.42;100.00
8697;BME280;4385;48.848;8.924;2023-05-02T06:30:08;97788.50;;;18.45;100.00
8697;BME280;4385;48.848;8.924;2023-05-02T06:32:33;97784.25;;;18.46;100.00
8697;BME280;4385;48.848;8.924;2023-05-02T06:34:59;97787.59;;;18.48;100.00
8697;BME280;4385;48.848;8.924;2023-05-02T06:37:24;97787.59;;;18.48;100.00
8697;BME280;4385;48.848;8.924;2023-05-02T06:39:49;97794.41;;;18.49;100.00
8697;BME280;4385;48.848;8.924;2023-05-02T06:42:15;97797.75;;;18.51;100.00
8697;BME280;4385;48.848;8.924;2023-05-02T06:44:40;97798.59;;;18.51;100.00
8697;BME280;4385;48.848;8.924;2023-05-02T06:47:05;97805.41;;;18.51;100.00
8697;BME280;4385;48.848;8.924;2023-05-02T06:49:31;97801.16;;;18.50;100.00
8697;BME280;4385;48.848;8.924;2023-05-02T06:51:56;97811.38;;;18.50;100.00
8697;BME280;4385;48.848;8.924;2023-05-02T06:54:22;97813.94;;;18.50;100.00
8697;BME280;4385;48.848;8.924;2023-05-02T06:56:47;97821.56;;;18.51;100.00
8697;BME280;4385;48.848;8.924;2023-05-02T06:59:12;97824.13;;;18.51;100.00
8697;BME280;4385;48.848;8.924;2023-05-02T07:01:38;97827.53;;;18.50;100.00
8697;BME280;4385;48.848;8.924;2023-05-02T07:04:03;97822.44;;;18.50;100.00
8697;BME280;4385;48.848;8.924;2023-05-02T07:06:30;97827.53;;;18.50;100.00
8697;BME280;4385;48.848;8.924;2023-05-02T07:08:56;97826.69;;;18.50;100.00
8697;BME280;4385;48.848;8.924;2023-05-02T07:11:21;97834.31;;;18.51;100.00
8697;BME280;4385;48.848;8.924;2023-05-02T07:13:48;97836.88;;;18.51;100.00
8697;BME280;4385;48.848;8.924;2023-05-02T07:16:13;97848.75;;;18.52;100.00
8697;BME280;4385;48.848;8.924;2023-05-02T07:18:39;97842.81;;;18.52;100.00
8697;BME280;4385;48.848;8.924;2023-05-02T07:21:04;97847.91;;;18.53;100.00
8697;BME280;4385;48.848;8.924;2023-05-02T07:23:30;97852.13;;;18.54;100.00
8697;BME280;4385;48.848;8.924;2023-05-02T07:25:55;97855.53;;;18.55;100.00
8697;BME280;4385;48.848;8.924;2023-05-02T07:28:20;97856.34;;;18.55;100.00
8697;BME280;4385;48.848;8.924;2023-05-02T07:30:45;97848.69;;;18.55;100.00
8697;BME280;4385;48.848;8.924;2023-05-02T07:33:13;97850.41;;;18.56;100.00
8697;BME280;4385;48.848;8.924;2023-05-02T07:35:39;97858.06;;;18.56;100.00
8697;BME280;4385;48.848;8.924;2023-05-02T07:38:04;97856.34;;;18.55;100.00
8697;BME280;4385;48.848;8.924;2023-05-02T07:40:29;97858.91;;;18.55;100.00
8697;BME280;4385;48.848;8.924;2023-05-02T07:42:55;97861.47;;;18.55;100.00
8697;BME280;4385;48.848;8.924;2023-05-02T07:45:20;97865.72;;;18.56;100.00
8697;BME280;4385;48.848;8.924;2023-05-02T07:47:45;97852.97;;;18.56;100.00
8697;BME280;4385;48.848;8.924;2023-05-02T07:50:11;97864.88;;;18.54;100.00
8697;BME280;4385;48.848;8.924;2023-05-02T07:52:36;97859.75;;;18.56;100.00
8697;BME280;4385;48.848;8.924;2023-05-02T07:55:02;97864.88;;;18.54;100.00
8697;BME280;4385;48.848;8.924;2023-05-02T07:57:27;97866.59;;;18.54;100.00
8697;BME280;4385;48.848;8.924;2023-05-02T07:59:53;97870.00;;;18.54;100.00
8697;BME280;4385;48.848;8.924;2023-05-02T08:02:21;97866.56;;;18.55;100.00
8697;BME280;4385;48.848;8.924;2023-05-02T08:04:48;97875.06;;;18.56;100.00
8697;BME280;4385;48.848;8.924;2023-05-02T08:07:13;97876.75;;;18.57;100.00
8697;BME280;4385;48.848;8.924;2023-05-02T08:09:39;97878.44;;;18.58;100.00
8697;BME280;4385;48.848;8.924;2023-05-02T08:12:04;97877.59;;;18.57;100.00
8697;BME280;4385;48.848;8.924;2023-05-02T08:14:29;97880.09;;;18.61;100.00
8697;BME280;4385;48.848;8.924;2023-05-02T08:16:55;97876.66;;;18.62;100.00
8697;BME280;4385;48.848;8.924;2023-05-02T08:19:21;97883.47;;;18.63;100.00
8697;BME280;4385;48.848;8.924;2023-05-02T08:21:46;97880.06;;;18.64;100.00
8697;BME280;4385;48.848;8.924;2023-05-02T08:24:11;97891.13;;;18.64;100.00
8697;BME280;4385;48.848;8.924;2023-05-02T08:26:36;97886.84;;;18.65;100.00
8697;BME280;4385;48.848;8.924;2023-05-02T08:29:02;97892.75;;;18.67;100.00
8697;BME280;4385;48.848;8.924;2023-05-02T08:31:28;97891.06;;;18.67;100.00
8697;BME280;4385;48.848;8.924;2023-05-02T08:33:54;97889.34;;;18.68;100.00
8697;BME280;4385;48.848;8.924;2023-05-02T08:36:19;97891.88;;;18.69;100.00
8697;BME280;4385;48.848;8.924;2023-05-02T08:38:45;97896.97;;;18.69;100.00
8697;BME280;4385;48.848;8.924;2023-05-02T08:41:14;97893.59;;;18.69;100.00
8697;BME280;4385;48.848;8.924;2023-05-02T08:43:41;97891.88;;;18.68;100.00
8697;BME280;4385;48.848;8.924;2023-05-02T08:46:07;97887.63;;;18.68;100.00
8697;BME280;4385;48.848;8.924;2023-05-02T08:48:39;97891.88;;;18.68;100.00
8697;BME280;4385;48.848;8.924;2023-05-02T08:51:08;97899.53;;;18.68;100.00
8697;BME280;4385;48.848;8.924;2023-05-02T08:53:35;97899.53;;;18.68;100.00
8697;BME280;4385;48.848;8.924;2023-05-02T08:56:01;97908.06;;;18.68;100.00
8697;BME280;4385;48.848;8.924;2023-05-02T08:58:26;97901.22;;;18.71;100.00
8697;BME280;4385;48.848;8.924;2023-05-02T09:00:54;97906.31;;;18.72;100.00
8697;BME280;4385;48.848;8.924;2023-05-02T09:03:33;97910.50;;;18.75;100.00
8697;BME280;4385;48.848;8.924;2023-05-02T09:06:10;97909.63;;;18.76;100.00
8697;BME280;4385;48.848;8.924;2023-05-02T09:08:41;97919.81;;;18.77;100.00
8697;BME280;4385;48.848;8.924;2023-05-02T09:11:08;97913.88;;;18.77;100.00
8697;BME280;4385;48.848;8.924;2023-05-02T09:13:38;97917.25;;;18.79;100.00
8697;BME280;4385;48.848;8.924;2023-05-02T09:16:15;97916.38;;;18.80;100.00
8697;BME280;4385;48.848;8.924;2023-05-02T09:18:45;97914.66;;;18.80;100.00
8697;BME280;4385;48.848;8.924;2023-05-02T09:21:11;97919.75;;;18.80;100.00
8697;BME280;4385;48.848;8.924;2023-05-02T09:23:42;97913.81;;;18.81;100.00
8697;BME280;4385;48.848;8.924;2023-05-02T09:31:17;97924.84;;;18.82;100.00
8697;BME280;4385;48.848;8.924;2023-05-02T09:33:43;97921.41;;;18.85;100.00
8697;BME280;4385;48.848;8.924;2023-05-02T09:36:14;97923.97;;;18.85;100.00
8697;BME280;4385;48.848;8.924;2023-05-02T09:38:41;97929.06;;;18.85;100.00
8697;BME280;4385;48.848;8.924;2023-05-02T09:41:07;97920.53;;;18.86;100.00
8697;BME280;4385;48.848;8.924;2023-05-02T09:43:33;97920.53;;;18.86;100.00
8697;BME280;4385;48.848;8.924;2023-05-02T09:45:59;97913.75;;;18.85;100.00
8697;BME280;4385;48.848;8.924;2023-05-02T09:48:25;97914.59;;;18.84;100.00
8697;BME280;4385;48.848;8.924;2023-05-02T09:50:51;97914.56;;;18.85;100.00
8697;BME280;4385;48.848;8.924;2023-05-02T09:53:16;97918.00;;;18.86;100.00
8697;BME280;4385;48.848;8.924;2023-05-02T09:55:42;97915.44;;;18.86;100.00
8697;BME280;4385;48.848;8.924;2023-05-02T09:58:19;97906.06;;;18.86;100.00
8697;BME280;4385;48.848;8.924;2023-05-02T10:00:45;97913.72;;;18.86;100.00
8697;BME280;4385;48.848;8.924;2023-05-02T10:03:15;97909.44;;;18.87;100.00
8697;BME280;4385;48.848;8.924;2023-05-02T10:05:42;97912.88;;;18.86;100.00
8697;BME280;4385;48.848;8.924;2023-05-02T10:08:08;97918.81;;;18.88;100.00
8697;BME280;4385;48.848;8.924;2023-05-02T10:10:36;97918.81;;;18.88;100.00
8697;BME280;4385;48.848;8.924;2023-05-02T10:13:02;97919.59;;;18.90;100.00
8697;BME280;4385;48.848;8.924;2023-05-02T10:15:30;97926.44;;;18.89;100.00
8697;BME280;4385;48.848;8.924;2023-05-02T10:17:57;97927.25;;;18.91;100.00
8697;BME280;4385;48.848;8.924;2023-05-02T10:20:33;97928.97;;;18.91;100.00
8697;BME280;4385;48.848;8.924;2023-05-02T10:22:59;97921.28;;;18.92;100.00
8697;BME280;4385;48.848;8.924;2023-05-02T10:25:26;97923.81;;;18.94;100.00
8697;BME280;4385;48.848;8.924;2023-05-02T10:27:52;97928.03;;;18.95;100.00
8697;BME280;4385;48.848;8.924;2023-05-02T10:30:20;97921.25;;;18.94;100.00
8697;BME280;4385;48.848;8.924;2023-05-02T10:32:46;97928.03;;;18.95;100.00
8697;BME280;4385;48.848;8.924;2023-05-02T10:35:14;97930.59;;;18.95;100.00
8697;BME280;4385;48.848;8.924;2023-05-02T10:37:40;97927.16;;;18.96;100.00
8697;BME280;4385;48.848;8.924;2023-05-02T10:40:10;97928.00;;;18.98;100.00
8697;BME280;4385;48.848;8.924;2023-05-02T10:42:37;97932.22;;;18.99;100.00
8697;BME280;4385;48.848;8.924;2023-05-02T10:45:04;97927.97;;;19.00;100.00
8697;BME280;4385;48.848;8.924;2023-05-02T10:47:35;97931.38;;;19.00;100.00
8697;BME280;4385;48.848;8.924;2023-05-02T10:50:01;97933.91;;;19.00;100.00
8697;BME280;4385;48.848;8.924;2023-05-02T10:52:37;97925.38;;;19.01;100.00
8697;BME280;4385;48.848;8.924;2023-05-02T10:55:21;97916.84;;;19.02;100.00
8697;BME280;4385;48.848;8.924;2023-05-02T11:00:21;97916.81;;;19.04;100.00
8697;BME280;4385;48.848;8.924;2023-05-02T11:02:47;97915.97;;;19.05;100.00
8697;BME280;4385;48.848;8.924;2023-05-02T11:05:13;97914.22;;;19.05;100.00
8697;BME280;4385;48.848;8.924;2023-05-02T11:07:38;97918.50;;;19.06;100.00
8697;BME280;4385;48.848;8.924;2023-05-02T11:12:55;97911.66;;;19.09;100.00
8697;BME280;4385;48.848;8.924;2023-05-02T11:18:07;97913.34;;;19.10;100.00
8697;BME280;4385;48.848;8.924;2023-05-02T11:20:34;97921.81;;;19.12;100.00
8697;BME280;4385;48.848;8.924;2023-05-02T11:25:50;97916.66;;;19.15;100.00
8697;BME280;4385;48.848;8.924;2023-05-02T11:33:58;97910.72;;;19.14;100.00
8697;BME280;4385;48.848;8.924;2023-05-02T11:36:30;97914.97;;;19.14;100.00
8697;BME280;4385;48.848;8.924;2023-05-02T11:38:58;97910.72;;;19.14;100.00
8697;BME280;4385;48.848;8.924;2023-05-02T11:41:40;97908.16;;;19.14;100.00
8697;BME280;4385;48.848;8.924;2023-05-02T11:44:05;97916.66;;;19.15;100.00
8697;BME280;4385;48.848;8.924;2023-05-02T11:46:31;97906.47;;;19.13;100.00
8697;BME280;4385;48.848;8.924;2023-05-02T11:48:57;97910.75;;;19.13;100.00
8697;BME280;4385;48.848;8.924;2023-05-02T11:51:23;97903.88;;;19.15;100.00
8697;BME280;4385;48.848;8.924;2023-05-02T11:53:48;97903.03;;;19.16;100.00
8697;BME280;4385;48.848;8.924;2023-05-02T11:56:14;97903.84;;;19.16;100.00
8697;BME280;4385;48.848;8.924;2023-05-02T11:58:39;97913.19;;;19.19;100.00
8697;BME280;4385;48.848;8.924;2023-05-02T12:01:15;97914.00;;;19.19;100.00
8697;BME280;4385;48.848;8.924;2023-05-02T12:03:41;97914.00;;;19.19;100.00
8697;BME280;4385;48.848;8.924;2023-05-02T12:06:14;97920.81;;;19.21;100.00
8697;BME280;4385;48.848;8.924;2023-05-02T12:08:41;97921.69;;;19.19;100.00
8697;BME280;4385;48.848;8.924;2023-05-02T12:11:07;97917.41;;;19.20;100.00
8697;BME280;4385;48.848;8.924;2023-05-02T12:13:33;97925.94;;;19.21;100.00
8697;BME280;4385;48.848;8.924;2023-05-02T12:15:58;97921.66;;;19.21;100.00
8697;BME280;4385;48.848;8.924;2023-05-02T12:18:25;97922.50;;;19.22;100.00
8697;BME280;4385;48.848;8.924;2023-05-02T12:20:52;97923.34;;;19.22;100.00
8697;BME280;4385;48.848;8.924;2023-05-02T12:23:19;97923.34;;;19.22;100.00
8697;BME280;4385;48.848;8.924;2023-05-02T12:25:45;97924.19;;;19.23;100.00
8697;BME280;4385;48.848;8.924;2023-05-02T12:28:10;97919.91;;;19.23;100.00
8697;BME280;4385;48.848;8.924;2023-05-02T12:30:37;97927.59;;;19.23;100.00
8697;BME280;4385;48.848;8.924;2023-05-02T12:33:03;97919.91;;;19.23;100.00
8697;BME280;4385;48.848;8.924;2023-05-02T12:35:30;97921.59;;;19.24;100.00
8697;BME280;4385;48.848;8.924;2023-05-02T12:38:07;97919.03;;;19.24;100.00
8697;BME280;4385;48.848;8.924;2023-05-02T12:40:33;97914.78;;;19.25;100.00
8697;BME280;4385;48.848;8.924;2023-05-02T12:43:00;97921.53;;;19.27;100.00
8697;BME280;4385;48.848;8.924;2023-05-02T12:45:28;97923.25;;;19.28;100.00
8697;BME280;4385;48.848;8.924;2023-05-02T12:47:58;97924.91;;;19.29;100.00
8697;BME280;4385;48.848;8.924;2023-05-02T12:50:37;97921.47;;;19.30;100.00
8697;BME280;4385;48.848;8.924;2023-05-02T12:53:02;97925.75;;;19.30;100.00
8697;BME280;4385;48.848;8.924;2023-05-02T12:55:29;97927.44;;;19.31;100.00
8697;BME280;4385;48.848;8.924;2023-05-02T12:58:06;97931.66;;;19.32;100.00
8697;BME280;4385;48.848;8.924;2023-05-02T13:00:33;97931.63;;;19.34;100.00
8697;BME280;4385;48.848;8.924;2023-05-02T13:03:00;97919.75;;;19.33;100.00
8697;BME280;4385;48.848;8.924;2023-05-02T13:05:25;97926.53;;;19.34;100.00
8697;BME280;4385;48.848;8.924;2023-05-02T13:07:51;97918.00;;;19.35;100.00
8697;BME280;4385;48.848;8.924;2023-05-02T13:10:17;97923.13;;;19.35;100.00
8697;BME280;4385;48.848;8.924;2023-05-02T13:12:45;97935.91;;;19.35;100.00
8697;BME280;4385;48.848;8.924;2023-05-02T13:15:12;97935.91;;;19.35;100.00
8697;BME280;4385;48.848;8.924;2023-05-02T13:17:38;97937.56;;;19.36;100.00
8697;BME280;4385;48.848;8.924;2023-05-02T13:20:03;97935.03;;;19.36;100.00
8697;BME280;4385;48.848;8.924;2023-05-02T13:22:29;97938.41;;;19.38;100.00
8697;BME280;4385;48.848;8.924;2023-05-02T13:24:54;97926.47;;;19.37;100.00
8697;BME280;4385;48.848;8.924;2023-05-02T13:27:22;97927.31;;;19.37;100.00
8697;BME280;4385;48.848;8.924;2023-05-02T13:29:48;97923.06;;;19.38;100.00
8697;BME280;4385;48.848;8.924;2023-05-02T13:32:13;97923.03;;;19.39;100.00
8697;BME280;4385;48.848;8.924;2023-05-02T13:34:39;97924.75;;;19.39;100.00
8697;BME280;4385;48.848;8.924;2023-05-02T13:37:05;97917.94;;;19.38;100.00
8697;BME280;4385;48.848;8.924;2023-05-02T13:39:30;97921.34;;;19.37;100.00
8697;BME280;4385;48.848;8.924;2023-05-02T13:41:55;97917.97;;;19.36;100.00
8697;BME280;4385;48.848;8.924;2023-05-02T13:44:20;97919.69;;;19.36;100.00
8697;BME280;4385;48.848;8.924;2023-05-02T13:46:46;97912.88;;;19.36;100.00
8697;BME280;4385;48.848;8.924;2023-05-02T13:49:11;97917.13;;;19.36;100.00
8697;BME280;4385;48.848;8.924;2023-05-02T13:51:37;97916.25;;;19.37;100.00
8697;BME280;4385;48.848;8.924;2023-05-02T13:54:02;97916.25;;;19.37;100.00
8697;BME280;4385;48.848;8.924;2023-05-02T13:56:27;97919.69;;;19.36;100.00